Time;durP1;ratioP1;P1;durP2;ratioP2;P2;SDS_P1;SDS_P2;PMS_P1;PMS_P2;Temp;Humidity;BMP_temperature;BMP_pressure;BME280_temperature;BME280_humidity;BME280_pressure;Samples;Min_cycle;Max_cycle;Signal;HPM_P1;HPM_P2
2022/10/12 00:00:21;;;;;;;18.00;11.40;;;;;;;;;;5059954;28;20531;-68
2022/10/12 00:02:47;;;;;;;18.52;12.18;;;;;;;;;;5060462;28;20056;-66
2022/10/12 00:05:14;;;;;;;18.38;12.27;;;;;;;;;;5059491;28;20049;-67
2022/10/12 00:07:40;;;;;;;21.92;12.00;;;;;;;;;;5057179;28;20534;-67
2022/10/12 00:10:07;;;;;;;17.35;11.05;;;;;;;;;;5060328;28;20522;-67
2022/10/12 00:12:33;;;;;;;19.00;11.27;;;;;;;;;;5058410;28;20056;-67
2022/10/12 00:14:59;;;;;;;26.80;10.88;;;;;;;;;;5061153;28;20052;-67
2022/10/12 00:17:25;;;;;;;20.63;11.52;;;;;;;;;;5061430;28;20053;-67
2022/10/12 00:19:52;;;;;;;18.15;11.15;;;;;;;;;;5060303;28;20053;-66
2022/10/12 00:22:18;;;;;;;22.92;11.13;;;;;;;;;;5057623;28;20057;-66
2022/10/12 00:24:45;;;;;;;24.33;12.45;;;;;;;;;;5062557;28;20108;-67
2022/10/12 00:27:11;;;;;;;21.58;11.10;;;;;;;;;;5061071;28;20053;-66
2022/10/12 00:29:37;;;;;;;24.25;10.88;;;;;;;;;;5060272;28;20054;-67
2022/10/12 00:32:04;;;;;;;16.35;11.45;;;;;;;;;;5059437;28;20057;-66
2022/10/12 00:34:30;;;;;;;18.98;10.45;;;;;;;;;;5059948;28;20045;-67
2022/10/12 00:36:57;;;;;;;18.52;10.85;;;;;;;;;;5059240;28;20111;-66
2022/10/12 00:39:23;;;;;;;20.70;10.85;;;;;;;;;;5061299;28;20543;-66
2022/10/12 00:41:49;;;;;;;18.52;10.40;;;;;;;;;;5061380;28;20094;-66
2022/10/12 00:44:32;;;;;;;18.00;10.65;;;;;;;;;;5059822;28;20052;-66
2022/10/12 00:46:59;;;;;;;21.52;10.07;;;;;;;;;;5060212;28;20041;-66
2022/10/12 00:49:26;;;;;;;20.20;10.50;;;;;;;;;;5060918;28;20055;-66
2022/10/12 00:51:59;;;;;;;16.83;10.75;;;;;;;;;;5060934;28;20045;-67
2022/10/12 00:54:27;;;;;;;32.63;10.27;;;;;;;;;;5061624;28;21009;-66
2022/10/12 00:56:55;;;;;;;19.02;9.55;;;;;;;;;;5062343;28;20048;-66
2022/10/12 00:59:25;;;;;;;15.00;8.30;;;;;;;;;;5041998;28;20057;-66
2022/10/12 01:01:52;;;;;;;14.60;8.10;;;;;;;;;;5056285;28;20060;-66
2022/10/12 01:04:18;;;;;;;12.80;8.10;;;;;;;;;;5059626;28;20053;-66
2022/10/12 01:06:45;;;;;;;16.08;8.50;;;;;;;;;;5058393;28;20049;-66
2022/10/12 01:09:11;;;;;;;16.40;9.27;;;;;;;;;;5060576;28;20436;-66
2022/10/12 01:11:37;;;;;;;12.70;7.78;;;;;;;;;;5063387;28;20053;-66
2022/10/12 01:14:04;;;;;;;12.98;8.38;;;;;;;;;;5061318;28;20504;-66
2022/10/12 01:16:53;;;;;;;17.92;8.57;;;;;;;;;;5062802;28;20041;-66
2022/10/12 01:19:33;;;;;;;18.55;8.18;;;;;;;;;;5055508;28;20061;-66
2022/10/12 01:22:01;;;;;;;14.20;8.18;;;;;;;;;;5062696;28;20782;-66
2022/10/12 01:24:43;;;;;;;18.33;7.60;;;;;;;;;;5064115;28;20065;-66
2022/10/12 01:27:28;;;;;;;16.73;8.52;;;;;;;;;;5063850;28;20147;-66
2022/10/12 01:30:05;;;;;;;19.10;7.63;;;;;;;;;;5062582;28;20049;-66
2022/10/12 01:32:46;;;;;;;13.35;6.63;;;;;;;;;;5062645;28;20284;-66
2022/10/12 01:35:32;;;;;;;23.65;8.18;;;;;;;;;;5062188;28;20052;-67
2022/10/12 01:38:21;;;;;;;12.80;6.80;;;;;;;;;;5056063;28;20057;-66
2022/10/12 01:40:54;;;;;;;9.70;6.30;;;;;;;;;;5064792;28;20083;-66
2022/10/12 01:43:20;;;;;;;15.02;6.80;;;;;;;;;;5056144;28;20136;-66
2022/10/12 01:45:47;;;;;;;14.43;7.28;;;;;;;;;;5063110;28;20041;-66
2022/10/12 01:48:13;;;;;;;12.63;7.47;;;;;;;;;;5063819;28;20052;-66
2022/10/12 01:50:46;;;;;;;11.77;6.68;;;;;;;;;;5063054;28;20057;-66
2022/10/12 01:53:12;;;;;;;12.30;7.28;;;;;;;;;;5063475;28;20533;-67
2022/10/12 01:55:51;;;;;;;11.55;6.40;;;;;;;;;;5060769;28;20502;-66
2022/10/12 01:58:23;;;;;;;11.20;6.97;;;;;;;;;;5048820;28;20978;-66
2022/10/12 02:01:05;;;;;;;12.50;7.10;;;;;;;;;;5064069;28;20053;-66
2022/10/12 02:03:40;;;;;;;18.02;7.43;;;;;;;;;;5062629;28;20064;-66
2022/10/12 02:06:09;;;;;;;10.45;6.22;;;;;;;;;;5060967;28;20053;-66
2022/10/12 02:08:59;;;;;;;20.55;6.80;;;;;;;;;;5062166;28;20045;-66
2022/10/12 02:11:26;;;;;;;12.73;6.55;;;;;;;;;;5054121;28;20049;-67
2022/10/12 02:13:55;;;;;;;12.13;6.40;;;;;;;;;;5064109;28;20064;-66
2022/10/12 02:16:24;;;;;;;17.80;7.10;;;;;;;;;;5061796;28;20506;-67
2022/10/12 02:18:51;;;;;;;13.07;6.68;;;;;;;;;;5059596;28;20518;-66
2022/10/12 02:21:20;;;;;;;10.15;5.63;;;;;;;;;;5059785;28;20064;-67
2022/10/12 02:23:47;;;;;;;11.90;6.78;;;;;;;;;;5062536;28;20056;-66
2022/10/12 02:26:14;;;;;;;12.27;6.28;;;;;;;;;;5061590;28;20057;-66
2022/10/12 02:28:42;;;;;;;13.07;6.50;;;;;;;;;;5060841;28;20049;-66
2022/10/12 02:31:17;;;;;;;12.82;6.85;;;;;;;;;;5063039;28;20175;-67
2022/10/12 02:33:56;;;;;;;16.23;6.97;;;;;;;;;;5062580;28;20057;-67
2022/10/12 02:36:26;;;;;;;16.98;6.75;;;;;;;;;;5061414;28;20053;-67
2022/10/12 02:38:57;;;;;;;8.73;5.22;;;;;;;;;;5063631;28;20434;-67
2022/10/12 02:41:27;;;;;;;15.32;5.80;;;;;;;;;;5063421;28;20053;-66
2022/10/12 02:43:56;;;;;;;13.02;5.85;;;;;;;;;;5062964;28;20057;-66
2022/10/12 02:46:24;;;;;;;14.98;6.38;;;;;;;;;;5059478;28;20569;-66
2022/10/12 02:48:51;;;;;;;9.85;5.20;;;;;;;;;;5062356;28;20061;-66
2022/10/12 02:51:18;;;;;;;12.32;6.32;;;;;;;;;;5063805;28;20049;-66
2022/10/12 02:53:45;;;;;;;13.30;6.05;;;;;;;;;;5062950;28;20095;-66
2022/10/12 02:56:13;;;;;;;11.50;6.70;;;;;;;;;;5062483;28;20056;-67
2022/10/12 02:58:41;;;;;;;17.88;6.35;;;;;;;;;;5061173;28;20060;-66
2022/10/12 03:01:08;;;;;;;10.25;5.28;;;;;;;;;;5061179;28;20060;-66
2022/10/12 03:03:34;;;;;;;10.80;5.22;;;;;;;;;;5051654;28;20107;-66
2022/10/12 03:06:00;;;;;;;10.88;5.60;;;;;;;;;;5055023;28;20056;-66
2022/10/12 03:08:27;;;;;;;8.10;4.72;;;;;;;;;;5062389;28;20056;-66
2022/10/12 03:10:53;;;;;;;10.15;5.00;;;;;;;;;;5062954;28;20045;-66
2022/10/12 03:13:20;;;;;;;7.95;5.43;;;;;;;;;;5059504;28;20061;-66
2022/10/12 03:15:46;;;;;;;7.10;4.68;;;;;;;;;;5060005;28;20058;-66
2022/10/12 03:18:12;;;;;;;8.90;5.10;;;;;;;;;;5061326;28;20447;-66
2022/10/12 03:20:38;;;;;;;13.90;5.28;;;;;;;;;;5062827;28;20048;-66
2022/10/12 03:23:05;;;;;;;9.77;5.07;;;;;;;;;;5061085;28;20049;-66
2022/10/12 03:25:32;;;;;;;12.85;5.50;;;;;;;;;;5062696;28;20965;-67
2022/10/12 03:27:58;;;;;;;10.57;5.68;;;;;;;;;;5061109;28;20056;-67
2022/10/12 03:30:25;;;;;;;11.45;5.25;;;;;;;;;;5062413;28;20057;-66
2022/10/12 03:32:51;;;;;;;9.85;5.70;;;;;;;;;;5061693;28;20057;-66
2022/10/12 03:35:17;;;;;;;13.75;5.47;;;;;;;;;;5063341;28;20056;-66
2022/10/12 03:37:43;;;;;;;14.75;5.68;;;;;;;;;;5062556;28;20060;-66
2022/10/12 03:40:10;;;;;;;9.93;5.05;;;;;;;;;;5061405;28;20118;-66
2022/10/12 03:42:36;;;;;;;10.30;5.53;;;;;;;;;;5060191;28;20045;-66
2022/10/12 03:45:03;;;;;;;10.15;5.45;;;;;;;;;;5061940;28;20506;-66
2022/10/12 03:47:29;;;;;;;7.53;5.22;;;;;;;;;;5059246;28;20062;-66
2022/10/12 03:49:55;;;;;;;10.32;5.32;;;;;;;;;;5066384;28;20048;-65
2022/10/12 03:52:21;;;;;;;13.68;6.07;;;;;;;;;;5063825;28;20052;-66
2022/10/12 03:54:48;;;;;;;11.05;5.72;;;;;;;;;;5059495;28;20068;-66
2022/10/12 03:57:14;;;;;;;13.27;6.00;;;;;;;;;;5061650;28;20045;-66
2022/10/12 03:59:40;;;;;;;16.58;5.70;;;;;;;;;;5062871;28;20823;-66
2022/10/12 04:02:07;;;;;;;13.38;5.53;;;;;;;;;;5060316;28;20543;-66
2022/10/12 04:04:36;;;;;;;10.70;6.03;;;;;;;;;;5061425;28;20057;-66
2022/10/12 04:07:02;;;;;;;13.45;5.97;;;;;;;;;;5060103;28;20852;-66
2022/10/12 04:09:28;;;;;;;8.20;6.00;;;;;;;;;;5059740;28;20052;-66
2022/10/12 04:11:55;;;;;;;20.30;6.47;;;;;;;;;;5060759;28;20057;-65
2022/10/12 04:14:21;;;;;;;9.18;5.68;;;;;;;;;;5061418;28;20064;-66
2022/10/12 04:16:47;;;;;;;7.68;5.45;;;;;;;;;;5044382;28;20060;-66
2022/10/12 04:19:14;;;;;;;12.20;6.40;;;;;;;;;;5062262;28;20615;-66
2022/10/12 04:21:40;;;;;;;13.38;7.22;;;;;;;;;;5060816;28;20048;-66
2022/10/12 04:24:06;;;;;;;8.43;6.15;;;;;;;;;;5059521;28;20491;-66
2022/10/12 04:26:33;;;;;;;13.32;7.13;;;;;;;;;;5060198;28;20049;-66
2022/10/12 04:28:59;;;;;;;14.00;6.72;;;;;;;;;;5061300;28;20049;-66
2022/10/12 04:31:25;;;;;;;13.52;6.13;;;;;;;;;;5060394;28;20064;-66
2022/10/12 04:33:55;;;;;;;17.15;6.57;;;;;;;;;;5062550;28;20099;-66
2022/10/12 04:36:23;;;;;;;12.98;6.00;;;;;;;;;;5058311;28;21942;-66
2022/10/12 04:38:49;;;;;;;11.52;6.60;;;;;;;;;;5058521;28;20068;-66
2022/10/12 04:41:16;;;;;;;10.45;6.35;;;;;;;;;;5060951;28;20060;-66
2022/10/12 04:43:42;;;;;;;12.90;6.07;;;;;;;;;;5059698;28;20511;-66
2022/10/12 04:46:08;;;;;;;9.02;5.55;;;;;;;;;;5058755;28;20473;-66
2022/10/12 04:48:35;;;;;;;12.60;5.68;;;;;;;;;;5061263;28;20107;-66
2022/10/12 04:51:01;;;;;;;11.43;5.97;;;;;;;;;;5059010;28;20495;-65
2022/10/12 04:53:27;;;;;;;10.90;6.25;;;;;;;;;;5060088;28;20052;-65
2022/10/12 04:55:54;;;;;;;10.32;6.10;;;;;;;;;;5059033;28;20056;-66
2022/10/12 04:58:20;;;;;;;11.68;6.07;;;;;;;;;;5059977;28;20056;-65
2022/10/12 05:00:47;;;;;;;8.68;5.72;;;;;;;;;;5057615;28;20068;-66
2022/10/12 05:03:14;;;;;;;12.85;6.03;;;;;;;;;;5060776;28;20045;-66
2022/10/12 05:05:40;;;;;;;10.75;5.90;;;;;;;;;;5060200;28;20056;-66
2022/10/12 05:08:06;;;;;;;11.95;5.68;;;;;;;;;;5056475;28;20053;-66
2022/10/12 05:10:32;;;;;;;13.85;6.35;;;;;;;;;;5059537;28;20070;-66
2022/10/12 05:12:59;;;;;;;9.00;5.90;;;;;;;;;;5059729;28;20055;-66
2022/10/12 05:15:25;;;;;;;10.50;5.85;;;;;;;;;;5061064;28;20507;-67
2022/10/12 05:17:51;;;;;;;17.40;6.88;;;;;;;;;;5060970;28;20517;-66
2022/10/12 05:20:18;;;;;;;12.68;5.57;;;;;;;;;;5059104;28;20450;-66
2022/10/12 05:22:44;;;;;;;15.20;5.68;;;;;;;;;;5056368;28;20589;-66
2022/10/12 05:25:10;;;;;;;12.75;5.22;;;;;;;;;;5050621;28;20053;-68
2022/10/12 05:27:36;;;;;;;11.07;6.80;;;;;;;;;;5056982;28;20156;-66
2022/10/12 05:30:04;;;;;;;13.38;7.20;;;;;;;;;;5044723;28;20259;-66
2022/10/12 05:32:31;;;;;;;13.13;6.07;;;;;;;;;;5060574;28;20049;-66
2022/10/12 05:34:57;;;;;;;11.13;6.45;;;;;;;;;;5059034;28;20473;-66
2022/10/12 05:37:23;;;;;;;12.88;6.60;;;;;;;;;;5059310;28;20060;-66
2022/10/12 05:39:50;;;;;;;9.27;6.00;;;;;;;;;;5061356;28;20087;-65
2022/10/12 05:42:17;;;;;;;7.78;5.13;;;;;;;;;;5057893;28;20341;-66
2022/10/12 05:44:43;;;;;;;13.15;6.50;;;;;;;;;;5053579;28;20060;-68
2022/10/12 05:47:10;;;;;;;13.77;7.43;;;;;;;;;;5060405;28;20180;-68
2022/10/12 05:49:36;;;;;;;16.15;5.80;;;;;;;;;;5059683;28;20053;-69
2022/10/12 05:52:02;;;;;;;14.52;6.55;;;;;;;;;;5064353;28;20060;-67
2022/10/12 05:54:28;;;;;;;10.02;6.75;;;;;;;;;;5060866;28;20061;-68
2022/10/12 05:56:55;;;;;;;15.57;6.43;;;;;;;;;;5063632;28;20515;-68
2022/10/12 05:59:21;;;;;;;12.63;6.30;;;;;;;;;;5064392;28;20517;-69
2022/10/12 06:01:48;;;;;;;14.40;5.88;;;;;;;;;;5069154;28;20049;-69
2022/10/12 06:04:15;;;;;;;11.05;6.63;;;;;;;;;;5078628;28;20491;-67
2022/10/12 06:06:41;;;;;;;10.30;6.78;;;;;;;;;;5063595;28;20053;-67
2022/10/12 06:09:08;;;;;;;12.02;6.97;;;;;;;;;;5063997;28;20066;-66
2022/10/12 06:11:34;;;;;;;13.68;6.35;;;;;;;;;;5063678;28;20103;-66
2022/10/12 06:14:02;;;;;;;10.18;6.60;;;;;;;;;;5064156;28;20060;-66
2022/10/12 06:16:28;;;;;;;9.82;5.90;;;;;;;;;;5066557;28;20568;-68
2022/10/12 06:18:54;;;;;;;15.38;6.97;;;;;;;;;;5067913;28;20053;-67
2022/10/12 06:21:21;;;;;;;10.52;6.53;;;;;;;;;;5060313;28;20564;-66
2022/10/12 06:23:59;;;;;;;13.25;6.38;;;;;;;;;;5065091;28;20048;-67
2022/10/12 06:26:25;;;;;;;9.40;5.95;;;;;;;;;;5062175;28;20056;-67
2022/10/12 06:28:52;;;;;;;11.43;6.80;;;;;;;;;;5063324;28;20084;-67
2022/10/12 06:31:18;;;;;;;10.63;6.43;;;;;;;;;;5062568;28;20045;-67
2022/10/12 06:33:45;;;;;;;15.45;6.70;;;;;;;;;;5057699;28;20099;-68
2022/10/12 06:36:11;;;;;;;11.57;6.25;;;;;;;;;;5064853;28;20122;-67
2022/10/12 06:38:38;;;;;;;10.93;6.50;;;;;;;;;;5056679;28;20053;-67
2022/10/12 06:41:04;;;;;;;9.93;5.82;;;;;;;;;;5059583;28;20084;-66
2022/10/12 06:43:30;;;;;;;16.83;7.47;;;;;;;;;;5076951;28;20053;-67
2022/10/12 06:46:00;;;;;;;11.35;6.43;;;;;;;;;;5062458;28;20215;-67
2022/10/12 06:48:27;;;;;;;16.45;6.50;;;;;;;;;;5069793;28;20522;-66
2022/10/12 06:50:53;;;;;;;10.80;6.50;;;;;;;;;;5078104;28;20609;-66
2022/10/12 06:53:21;;;;;;;13.60;6.05;;;;;;;;;;5060998;28;20602;-67
2022/10/12 06:55:47;;;;;;;12.05;6.95;;;;;;;;;;5062272;28;20722;-67
2022/10/12 06:58:13;;;;;;;11.57;6.43;;;;;;;;;;5075549;28;20055;-67
2022/10/12 07:00:39;;;;;;;18.30;7.70;;;;;;;;;;5064897;28;20048;-67
2022/10/12 07:03:06;;;;;;;21.33;6.78;;;;;;;;;;5069131;28;20053;-66
2022/10/12 07:05:32;;;;;;;18.77;6.85;;;;;;;;;;5065744;28;20052;-66
2022/10/12 07:07:58;;;;;;;14.80;7.13;;;;;;;;;;5064615;28;20045;-67
2022/10/12 07:10:25;;;;;;;10.93;6.45;;;;;;;;;;5046758;28;20178;-67
2022/10/12 07:12:51;;;;;;;17.75;6.88;;;;;;;;;;5071044;28;20049;-66
2022/10/12 07:15:18;;;;;;;16.02;7.05;;;;;;;;;;5073043;28;20053;-66
2022/10/12 07:17:44;;;;;;;15.50;6.97;;;;;;;;;;5075743;28;20060;-66
2022/10/12 07:20:10;;;;;;;10.63;6.80;;;;;;;;;;5059591;28;20045;-67
2022/10/12 07:22:37;;;;;;;10.63;6.78;;;;;;;;;;5062154;28;20513;-68
2022/10/12 07:25:03;;;;;;;13.43;7.00;;;;;;;;;;5061179;28;20063;-69
2022/10/12 07:27:29;;;;;;;9.77;6.88;;;;;;;;;;5062777;28;20195;-69
2022/10/12 07:29:56;;;;;;;14.38;7.00;;;;;;;;;;5061630;28;20053;-69
2022/10/12 07:32:22;;;;;;;12.13;7.00;;;;;;;;;;5060345;28;20166;-67
2022/10/12 07:34:49;;;;;;;12.68;7.30;;;;;;;;;;5060279;28;20073;-68
2022/10/12 07:37:15;;;;;;;19.63;7.97;;;;;;;;;;5058647;28;20055;-68
2022/10/12 07:39:42;;;;;;;16.17;8.05;;;;;;;;;;5066294;28;20407;-69
2022/10/12 07:42:08;;;;;;;17.70;8.20;;;;;;;;;;5065968;28;20049;-68
2022/10/12 07:44:34;;;;;;;15.18;7.55;;;;;;;;;;5058574;28;20056;-68
2022/10/12 07:47:00;;;;;;;20.10;8.75;;;;;;;;;;5061357;28;20053;-68
2022/10/12 07:49:27;;;;;;;15.38;8.00;;;;;;;;;;5074309;28;20059;-67
2022/10/12 07:51:53;;;;;;;16.52;8.77;;;;;;;;;;5067234;28;20044;-67
2022/10/12 07:54:20;;;;;;;14.13;7.95;;;;;;;;;;5063954;28;20221;-67
2022/10/12 07:56:54;;;;;;;15.57;8.95;;;;;;;;;;5060815;28;20494;-67
2022/10/12 07:59:20;;;;;;;22.70;9.40;;;;;;;;;;5069457;28;20053;-66
2022/10/12 08:01:46;;;;;;;18.88;9.90;;;;;;;;;;5061672;28;20510;-66
2022/10/12 08:04:13;;;;;;;22.85;9.73;;;;;;;;;;5065877;28;20048;-67
2022/10/12 08:06:40;;;;;;;21.92;9.82;;;;;;;;;;5063787;28;20148;-66
2022/10/12 08:09:06;;;;;;;23.83;9.43;;;;;;;;;;5060807;28;20053;-66
2022/10/12 08:11:36;;;;;;;14.35;8.18;;;;;;;;;;5063985;28;20539;-67
2022/10/12 08:14:03;;;;;;;13.05;8.25;;;;;;;;;;5062408;28;20056;-66
2022/10/12 08:16:29;;;;;;;16.35;9.65;;;;;;;;;;5061514;28;20052;-67
2022/10/12 08:18:55;;;;;;;28.33;10.18;;;;;;;;;;5062051;28;20056;-67
2022/10/12 08:21:22;;;;;;;15.60;9.23;;;;;;;;;;5072251;28;20076;-66
2022/10/12 08:23:48;;;;;;;20.75;10.18;;;;;;;;;;5079010;28;20048;-67
2022/10/12 08:26:15;;;;;;;16.33;9.43;;;;;;;;;;5074620;28;20045;-69
2022/10/12 08:28:41;;;;;;;15.85;9.18;;;;;;;;;;5062308;28;20060;-68
2022/10/12 08:31:09;;;;;;;17.35;9.68;;;;;;;;;;5063243;28;20498;-67
2022/10/12 08:33:36;;;;;;;18.20;9.25;;;;;;;;;;5081249;28;20048;-69
2022/10/12 08:36:03;;;;;;;14.55;9.27;;;;;;;;;;5061825;28;20037;-66
2022/10/12 08:38:30;;;;;;;17.80;8.43;;;;;;;;;;5061397;28;20516;-67
2022/10/12 08:41:10;;;;;;;17.33;8.63;;;;;;;;;;5061224;28;20883;-67
2022/10/12 08:43:42;;;;;;;12.65;8.65;;;;;;;;;;5062205;28;20060;-67
2022/10/12 08:46:08;;;;;;;18.17;8.80;;;;;;;;;;5053677;28;20058;-65
2022/10/12 08:48:44;;;;;;;11.07;5.72;;;;;;;;;;5071600;28;20515;-63
2022/10/12 08:51:16;;;;;;;18.88;8.90;;;;;;;;;;5070945;28;20045;-67
2022/10/12 08:53:45;;;;;;;17.67;9.60;;;;;;;;;;5060235;28;20060;-67
2022/10/12 08:56:21;;;;;;;16.40;8.63;;;;;;;;;;5060301;28;20560;-67
2022/10/12 08:58:47;;;;;;;;;;;;;;;;;;5070450;28;20403;-67
2022/10/12 09:01:13;;;;;;;;;;;;;;;;;;5060723;28;45239;-67
2022/10/12 09:03:41;;;;;;;15.65;8.45;;;;;;;;;;5063708;28;45918;-67
2022/10/12 09:06:13;;;;;;;19.30;8.88;;;;;;;;;;5059445;28;20048;-67
2022/10/12 09:09:18;;;;;;;31.63;8.95;;;;;;;;;;5062331;28;20088;-66
2022/10/12 09:11:47;;;;;;;15.05;8.63;;;;;;;;;;5057564;28;20503;-67
2022/10/12 09:14:18;;;;;;;13.35;7.50;;;;;;;;;;5057209;28;20046;-67
2022/10/12 09:16:46;;;;;;;19.85;9.02;;;;;;;;;;5043625;28;20045;-67
2022/10/12 09:19:31;;;;;;;20.02;9.15;;;;;;;;;;5049013;28;20054;-67
2022/10/12 09:21:58;;;;;;;17.00;8.27;;;;;;;;;;5053997;28;20053;-67
2022/10/12 09:24:25;;;;;;;19.88;8.93;;;;;;;;;;5038246;28;20592;-68
2022/10/12 09:26:56;;;;;;;17.35;8.32;;;;;;;;;;5057753;28;20558;-67
2022/10/12 09:29:27;;;;;;;18.42;7.88;;;;;;;;;;5056881;28;20068;-68
2022/10/12 09:32:03;;;;;;;17.65;8.10;;;;;;;;;;5061713;28;20049;-68
2022/10/12 09:34:29;;;;;;;23.63;8.15;;;;;;;;;;5043384;28;20062;-68
2022/10/12 09:36:55;;;;;;;20.80;8.93;;;;;;;;;;5060854;28;20049;-68
2022/10/12 09:39:29;;;;;;;17.73;7.55;;;;;;;;;;5060480;28;20060;-67
2022/10/12 09:41:56;;;;;;;13.45;6.70;;;;;;;;;;5063682;28;20148;-66
2022/10/12 09:44:38;;;;;;;13.15;7.00;;;;;;;;;;5083251;28;20044;-68
2022/10/12 09:47:28;;;;;;;18.33;7.40;;;;;;;;;;5083086;28;20045;-69
2022/10/12 09:49:57;;;;;;;18.33;7.25;;;;;;;;;;5074959;28;20053;-69
2022/10/12 09:52:38;;;;;;;12.18;7.13;;;;;;;;;;5070932;28;20057;-68
2022/10/12 09:55:13;;;;;;;21.38;6.80;;;;;;;;;;5064732;28;20052;-68
2022/10/12 09:57:43;;;;;;;16.30;8.65;;;;;;;;;;5064316;28;20049;-69
2022/10/12 10:00:28;;;;;;;15.90;7.47;;;;;;;;;;5063562;28;20053;-69
2022/10/12 10:02:54;;;;;;;13.95;7.10;;;;;;;;;;5060431;28;20053;-66
2022/10/12 10:05:22;;;;;;;18.00;6.70;;;;;;;;;;5064228;28;20057;-67
2022/10/12 10:07:49;;;;;;;12.38;6.22;;;;;;;;;;5064366;28;20076;-66
2022/10/12 10:10:22;;;;;;;19.67;6.93;;;;;;;;;;5065079;28;20060;-66
2022/10/12 10:12:57;;;;;;;15.80;8.20;;;;;;;;;;5076511;28;20514;-66
2022/10/12 10:15:26;;;;;;;15.27;6.55;;;;;;;;;;5074495;28;20045;-67
2022/10/12 10:17:58;;;;;;;14.82;6.78;;;;;;;;;;5061165;28;20137;-67
2022/10/12 10:20:45;;;;;;;18.02;6.85;;;;;;;;;;5064177;28;20057;-66
2022/10/12 10:23:38;;;;;;;10.98;5.53;;;;;;;;;;5052273;28;20042;-66
2022/10/12 10:26:05;;;;;;;16.25;5.07;;;;;;;;;;5057079;28;20576;-67
2022/10/12 10:28:33;;;;;;;11.48;4.93;;;;;;;;;;5062497;28;20309;-66
2022/10/12 10:31:01;;;;;;;13.90;5.38;;;;;;;;;;5063609;28;20053;-66
2022/10/12 10:33:29;;;;;;;14.82;4.72;;;;;;;;;;5062783;28;20132;-66
2022/10/12 10:35:55;;;;;;;12.27;5.00;;;;;;;;;;5064420;28;20049;-66
2022/10/12 10:38:21;;;;;;;12.93;5.43;;;;;;;;;;5063907;28;20106;-66
2022/10/12 10:40:53;;;;;;;15.20;5.75;;;;;;;;;;5071837;28;20059;-66
2022/10/12 10:43:23;;;;;;;13.25;5.85;;;;;;;;;;5059768;28;20547;-68
2022/10/12 10:45:50;;;;;;;13.27;5.38;;;;;;;;;;5062502;28;20044;-67
2022/10/12 10:48:19;;;;;;;15.25;5.88;;;;;;;;;;5080310;28;20576;-68
2022/10/12 10:50:59;;;;;;;12.88;5.38;;;;;;;;;;5068355;28;20144;-68
2022/10/12 10:53:26;;;;;;;13.13;5.82;;;;;;;;;;5043782;28;20544;-68
2022/10/12 10:55:55;;;;;;;9.30;4.65;;;;;;;;;;5043441;28;20053;-67
2022/10/12 10:58:43;;;;;;;12.07;4.25;;;;;;;;;;5042743;28;20485;-66
2022/10/12 11:01:17;;;;;;;13.00;4.47;;;;;;;;;;5066648;28;20056;-67
2022/10/12 11:03:53;;;;;;;10.73;5.05;;;;;;;;;;5061059;28;20219;-67
2022/10/12 11:06:40;;;;;;;9.52;4.50;;;;;;;;;;5067354;28;20057;-67
2022/10/12 11:09:10;;;;;;;9.25;4.30;;;;;;;;;;5061502;28;20056;-67
2022/10/12 11:11:37;;;;;;;9.52;4.65;;;;;;;;;;5062998;28;20060;-66
2022/10/12 11:14:10;;;;;;;10.75;5.85;;;;;;;;;;5062879;28;20049;-67
2022/10/12 11:16:38;;;;;;;11.70;4.90;;;;;;;;;;5061681;28;20527;-67
2022/10/12 11:19:21;;;;;;;9.40;4.30;;;;;;;;;;5061616;28;20499;-67
2022/10/12 11:21:50;;;;;;;13.05;5.22;;;;;;;;;;5063063;28;20053;-67
2022/10/12 11:24:19;;;;;;;22.42;6.15;;;;;;;;;;5064533;28;20552;-67
2022/10/12 11:26:45;;;;;;;10.77;5.00;;;;;;;;;;5073856;28;20037;-69
2022/10/12 11:29:13;;;;;;;11.57;4.88;;;;;;;;;;5062427;28;20060;-70
2022/10/12 11:31:52;;;;;;;10.10;4.57;;;;;;;;;;5062246;28;20060;-66
2022/10/12 11:34:21;;;;;;;13.98;5.60;;;;;;;;;;5062465;28;20582;-67
2022/10/12 11:36:49;;;;;;;11.88;5.93;;;;;;;;;;5061489;28;20446;-68
2022/10/12 11:39:38;;;;;;;14.75;5.50;;;;;;;;;;5062521;28;20057;-67
2022/10/12 11:42:06;;;;;;;10.18;5.68;;;;;;;;;;5062144;28;20045;-67
2022/10/12 11:44:47;;;;;;;11.98;4.90;;;;;;;;;;5062883;28;20411;-67
2022/10/12 11:47:16;;;;;;;12.25;4.38;;;;;;;;;;5065774;28;20501;-66
2022/10/12 11:49:45;;;;;;;8.65;4.65;;;;;;;;;;5072720;28;20493;-67
2022/10/12 11:52:12;;;;;;;15.70;4.47;;;;;;;;;;5060493;28;20049;-67
2022/10/12 11:54:46;;;;;;;8.05;4.53;;;;;;;;;;5061380;28;20052;-67
2022/10/12 11:57:15;;;;;;;7.63;3.88;;;;;;;;;;5063568;28;20053;-67
2022/10/12 11:59:44;;;;;;;7.45;3.83;;;;;;;;;;5069148;28;20917;-67
2022/10/12 12:02:25;;;;;;;12.30;5.43;;;;;;;;;;5078165;28;20055;-67
2022/10/12 12:04:52;;;;;;;9.88;4.53;;;;;;;;;;5083079;28;20051;-67
2022/10/12 12:07:22;;;;;;;15.60;5.50;;;;;;;;;;5076153;28;20909;-67
2022/10/12 12:09:49;;;;;;;7.07;3.70;;;;;;;;;;5063504;28;20099;-68
2022/10/12 12:12:18;;;;;;;8.88;3.83;;;;;;;;;;5062423;28;20140;-67
2022/10/12 12:14:46;;;;;;;7.72;3.40;;;;;;;;;;5050936;28;20053;-67
2022/10/12 12:17:12;;;;;;;7.57;3.30;;;;;;;;;;5062036;28;20205;-67
2022/10/12 12:19:42;;;;;;;6.13;3.00;;;;;;;;;;5061304;28;20041;-67
2022/10/12 12:22:27;;;;;;;8.70;3.13;;;;;;;;;;5057981;28;20471;-67
2022/10/12 12:25:07;;;;;;;5.65;2.95;;;;;;;;;;5070912;28;20072;-68
2022/10/12 12:27:39;;;;;;;10.18;3.13;;;;;;;;;;5075950;28;20060;-67
2022/10/12 12:30:25;;;;;;;7.57;4.13;;;;;;;;;;5071776;28;20111;-67
2022/10/12 12:32:56;;;;;;;7.95;3.25;;;;;;;;;;5060012;28;20049;-67
2022/10/12 12:35:25;;;;;;;9.43;3.90;;;;;;;;;;5047133;28;20539;-67
2022/10/12 12:38:04;;;;;;;12.18;4.20;;;;;;;;;;5060429;28;20052;-65
2022/10/12 12:40:30;;;;;;;11.85;4.18;;;;;;;;;;5059782;28;20511;-67
2022/10/12 12:43:15;;;;;;;9.18;4.28;;;;;;;;;;5059428;28;20057;-67
2022/10/12 12:45:53;;;;;;;14.10;4.10;;;;;;;;;;5058458;28;20059;-67
2022/10/12 12:48:56;;;;;;;9.15;3.95;;;;;;;;;;5070074;28;20259;-67
2022/10/12 12:51:34;;;;;;;11.13;5.43;;;;;;;;;;4977110;28;20074;-66
2022/10/12 12:54:05;;;;;;;11.32;5.03;;;;;;;;;;4985870;28;20575;-66
2022/10/12 12:56:47;;;;;;;9.90;5.40;;;;;;;;;;5037873;22;20060;-76
2022/10/12 12:59:26;;;;;;;13.10;5.43;;;;;;;;;;5005965;22;20065;-67
2022/10/12 13:01:52;;;;;;;13.27;5.90;;;;;;;;;;5031780;28;20072;-77
2022/10/12 13:04:42;;;;;;;14.40;5.68;;;;;;;;;;5040014;28;20284;-77
2022/10/12 13:07:27;;;;;;;11.07;5.65;;;;;;;;;;5027315;28;20056;-77
2022/10/12 13:10:02;;;;;;;13.25;5.55;;;;;;;;;;5048155;28;20152;-75
2022/10/12 13:12:35;;;;;;;12.45;5.78;;;;;;;;;;5021460;28;20065;-76
2022/10/12 13:15:01;;;;;;;9.77;5.10;;;;;;;;;;5035938;28;20054;-76
2022/10/12 13:17:37;;;;;;;10.05;4.70;;;;;;;;;;5052355;28;20084;-76
2022/10/12 13:20:03;;;;;;;;;;;;;;;;;;5041310;28;20624;-76
2022/10/12 13:22:33;;;;;;;11.48;5.30;;;;;;;;;;5042947;28;45640;-76
2022/10/12 13:25:05;;;;;;;11.45;5.25;;;;;;;;;;5043041;28;20057;-76
2022/10/12 13:27:37;;;;;;;12.60;5.70;;;;;;;;;;5043618;28;20057;-75
2022/10/12 13:30:07;;;;;;;10.25;5.63;;;;;;;;;;5038019;28;20506;-78
2022/10/12 13:32:43;;;;;;;12.95;6.15;;;;;;;;;;5041861;28;20057;-78
2022/10/12 13:35:29;;;;;;;13.88;6.97;;;;;;;;;;5040169;28;20129;-76
2022/10/12 13:38:03;;;;;;;10.35;5.43;;;;;;;;;;5031730;28;20496;-76
2022/10/12 13:40:36;;;;;;;16.75;6.78;;;;;;;;;;5044863;28;20131;-76
2022/10/12 13:43:18;;;;;;;14.45;6.88;;;;;;;;;;5042199;28;20562;-76
2022/10/12 13:45:45;;;;;;;14.75;6.55;;;;;;;;;;5051345;28;20060;-76
2022/10/12 13:48:16;;;;;;;15.13;8.90;;;;;;;;;;5043778;28;20061;-76
2022/10/12 13:51:03;;;;;;;16.08;7.68;;;;;;;;;;5043625;28;20059;-72
2022/10/12 13:53:36;;;;;;;16.50;7.78;;;;;;;;;;5040413;28;20046;-81
2022/10/12 13:56:06;;;;;;;17.73;7.90;;;;;;;;;;5038543;28;20049;-75
2022/10/12 13:58:34;;;;;;;17.33;7.85;;;;;;;;;;5024785;28;20144;-75
2022/10/12 14:01:01;;;;;;;15.13;8.13;;;;;;;;;;5045137;28;20057;-76
2022/10/12 14:03:38;;;;;;;18.50;9.35;;;;;;;;;;5047663;28;20638;-76
2022/10/12 14:06:05;;;;;;;16.05;8.63;;;;;;;;;;5042118;28;20299;-75
2022/10/12 14:08:33;;;;;;;13.55;8.73;;;;;;;;;;5049229;28;20057;-76
2022/10/12 14:10:59;;;;;;;14.80;7.90;;;;;;;;;;5050947;28;20057;-78
2022/10/12 14:13:30;;;;;;;16.05;8.55;;;;;;;;;;5041666;28;20068;-69
2022/10/12 14:15:58;;;;;;;12.73;7.68;;;;;;;;;;5035912;28;20092;-66
2022/10/12 14:18:44;;;;;;;17.67;8.40;;;;;;;;;;5033160;28;20053;-65
2022/10/12 14:21:22;;;;;;;15.50;9.25;;;;;;;;;;5033349;28;20073;-74
2022/10/12 14:23:49;;;;;;;15.20;8.02;;;;;;;;;;5017423;28;20033;-73
2022/10/12 14:26:24;;;;;;;15.88;8.55;;;;;;;;;;5015562;28;20104;-63
2022/10/12 14:28:51;;;;;;;19.40;9.85;;;;;;;;;;5035268;28;20084;-77
2022/10/12 14:31:17;;;;;;;16.90;10.15;;;;;;;;;;5018369;28;20111;-76
2022/10/12 14:33:44;;;;;;;20.98;9.80;;;;;;;;;;5034385;28;20049;-79
2022/10/12 14:36:10;;;;;;;19.25;8.48;;;;;;;;;;5034969;28;20062;-77
2022/10/12 14:38:37;;;;;;;17.42;9.68;;;;;;;;;;5035018;28;20056;-78
2022/10/12 14:41:22;;;;;;;18.38;9.10;;;;;;;;;;5031832;28;20494;-78
2022/10/12 14:44:02;;;;;;;13.60;8.00;;;;;;;;;;5034465;28;20059;-78
2022/10/12 14:46:36;;;;;;;15.10;8.05;;;;;;;;;;5017359;28;20058;-78